sensor_id;sensor_type;location;lat;lon;timestamp;P1;durP1;ratioP1;P2;durP2;ratioP2
33593;SDS011;19920;52.242;20.940;2023-10-31T00:00:15;17.17;;;11.13;;
33593;SDS011;19920;52.242;20.940;2023-10-31T00:02:41;19.67;;;11.20;;
33593;SDS011;19920;52.242;20.940;2023-10-31T00:05:06;17.80;;;11.20;;
33593;SDS011;19920;52.242;20.940;2023-10-31T00:07:32;20.55;;;11.52;;
33593;SDS011;19920;52.242;20.940;2023-10-31T00:09:57;16.45;;;11.60;;
33593;SDS011;19920;52.242;20.940;2023-10-31T00:12:23;20.55;;;11.35;;
33593;SDS011;19920;52.242;20.940;2023-10-31T00:14:48;19.42;;;10.93;;
33593;SDS011;19920;52.242;20.940;2023-10-31T00:17:14;19.35;;;10.52;;
33593;SDS011;19920;52.242;20.940;2023-10-31T00:19:39;16.38;;;10.27;;
33593;SDS011;19920;52.242;20.940;2023-10-31T00:22:05;17.50;;;10.75;;
33593;SDS011;19920;52.242;20.940;2023-10-31T00:24:31;19.35;;;10.20;;
33593;SDS011;19920;52.242;20.940;2023-10-31T00:26:57;14.80;;;9.93;;
33593;SDS011;19920;52.242;20.940;2023-10-31T00:29:23;15.82;;;9.80;;
33593;SDS011;19920;52.242;20.940;2023-10-31T00:31:48;16.17;;;10.35;;
33593;SDS011;19920;52.242;20.940;2023-10-31T00:34:14;19.65;;;10.18;;
33593;SDS011;19920;52.242;20.940;2023-10-31T00:36:40;16.20;;;9.98;;
33593;SDS011;19920;52.242;20.940;2023-10-31T00:39:06;15.45;;;9.75;;
33593;SDS011;19920;52.242;20.940;2023-10-31T00:41:31;18.92;;;9.68;;
33593;SDS011;19920;52.242;20.940;2023-10-31T00:43:57;18.42;;;9.65;;
33593;SDS011;19920;52.242;20.940;2023-10-31T00:46:23;18.17;;;9.88;;
33593;SDS011;19920;52.242;20.940;2023-10-31T00:48:48;16.88;;;9.20;;
33593;SDS011;19920;52.242;20.940;2023-10-31T00:51:14;18.38;;;9.63;;
33593;SDS011;19920;52.242;20.940;2023-10-31T00:53:39;16.13;;;10.05;;
33593;SDS011;19920;52.242;20.940;2023-10-31T00:56:05;15.65;;;9.48;;
33593;SDS011;19920;52.242;20.940;2023-10-31T00:58:31;18.98;;;9.32;;
33593;SDS011;19920;52.242;20.940;2023-10-31T01:00:57;14.82;;;9.73;;
33593;SDS011;19920;52.242;20.940;2023-10-31T01:03:23;14.07;;;9.07;;
33593;SDS011;19920;52.242;20.940;2023-10-31T01:05:48;20.15;;;9.32;;
33593;SDS011;19920;52.242;20.940;2023-10-31T01:08:14;16.65;;;9.32;;
33593;SDS011;19920;52.242;20.940;2023-10-31T01:10:40;15.93;;;9.15;;
33593;SDS011;19920;52.242;20.940;2023-10-31T01:13:06;13.80;;;9.00;;
33593;SDS011;19920;52.242;20.940;2023-10-31T01:15:31;13.40;;;8.18;;
33593;SDS011;19920;52.242;20.940;2023-10-31T01:17:57;14.43;;;8.55;;
33593;SDS011;19920;52.242;20.940;2023-10-31T01:20:23;13.52;;;7.97;;
33593;SDS011;19920;52.242;20.940;2023-10-31T01:22:48;14.65;;;9.07;;
33593;SDS011;19920;52.242;20.940;2023-10-31T01:25:14;15.00;;;8.63;;
33593;SDS011;19920;52.242;20.940;2023-10-31T01:27:39;16.00;;;8.95;;
33593;SDS011;19920;52.242;20.940;2023-10-31T01:30:07;13.30;;;8.38;;
33593;SDS011;19920;52.242;20.940;2023-10-31T01:32:33;13.60;;;8.77;;
33593;SDS011;19920;52.242;20.940;2023-10-31T01:34:58;13.82;;;8.85;;
33593;SDS011;19920;52.242;20.940;2023-10-31T01:37:24;15.55;;;8.55;;
33593;SDS011;19920;52.242;20.940;2023-10-31T01:39:49;14.27;;;8.90;;
33593;SDS011;19920;52.242;20.940;2023-10-31T01:42:15;15.40;;;8.60;;
33593;SDS011;19920;52.242;20.940;2023-10-31T01:44:41;19.60;;;9.02;;
33593;SDS011;19920;52.242;20.940;2023-10-31T01:47:07;14.40;;;8.00;;
33593;SDS011;19920;52.242;20.940;2023-10-31T01:49:33;12.27;;;8.43;;
33593;SDS011;19920;52.242;20.940;2023-10-31T01:52:00;15.73;;;8.18;;
33593;SDS011;19920;52.242;20.940;2023-10-31T01:54:27;12.95;;;8.15;;
33593;SDS011;19920;52.242;20.940;2023-10-31T01:56:54;19.35;;;8.25;;
33593;SDS011;19920;52.242;20.940;2023-10-31T01:59:23;24.08;;;9.95;;
33593;SDS011;19920;52.242;20.940;2023-10-31T02:01:49;12.80;;;8.18;;
33593;SDS011;19920;52.242;20.940;2023-10-31T02:04:15;14.63;;;8.45;;
33593;SDS011;19920;52.242;20.940;2023-10-31T02:06:40;12.90;;;8.02;;
33593;SDS011;19920;52.242;20.940;2023-10-31T02:09:06;14.57;;;8.05;;
33593;SDS011;19920;52.242;20.940;2023-10-31T02:11:32;14.60;;;7.85;;
33593;SDS011;19920;52.242;20.940;2023-10-31T02:13:57;14.77;;;7.55;;
33593;SDS011;19920;52.242;20.940;2023-10-31T02:16:23;14.10;;;7.82;;
33593;SDS011;19920;52.242;20.940;2023-10-31T02:18:50;14.30;;;7.32;;
33593;SDS011;19920;52.242;20.940;2023-10-31T02:21:16;16.95;;;7.93;;
33593;SDS011;19920;52.242;20.940;2023-10-31T02:23:57;13.70;;;7.93;;
33593;SDS011;19920;52.242;20.940;2023-10-31T02:26:31;12.95;;;8.00;;
33593;SDS011;19920;52.242;20.940;2023-10-31T02:31:23;17.63;;;7.50;;
33593;SDS011;19920;52.242;20.940;2023-10-31T02:33:49;12.75;;;7.78;;
33593;SDS011;19920;52.242;20.940;2023-10-31T02:36:15;12.80;;;8.05;;
33593;SDS011;19920;52.242;20.940;2023-10-31T02:38:40;12.18;;;7.78;;
33593;SDS011;19920;52.242;20.940;2023-10-31T02:41:06;13.15;;;8.15;;
33593;SDS011;19920;52.242;20.940;2023-10-31T02:43:32;13.38;;;7.75;;
33593;SDS011;19920;52.242;20.940;2023-10-31T02:45:57;12.13;;;7.40;;
33593;SDS011;19920;52.242;20.940;2023-10-31T02:48:23;11.73;;;7.47;;
33593;SDS011;19920;52.242;20.940;2023-10-31T02:50:49;11.52;;;6.93;;
33593;SDS011;19920;52.242;20.940;2023-10-31T02:53:17;14.68;;;7.78;;
33593;SDS011;19920;52.242;20.940;2023-10-31T02:55:43;11.85;;;7.20;;
33593;SDS011;19920;52.242;20.940;2023-10-31T02:58:09;12.45;;;6.53;;
33593;SDS011;19920;52.242;20.940;2023-10-31T03:00:35;11.15;;;7.15;;
33593;SDS011;19920;52.242;20.940;2023-10-31T03:03:01;16.88;;;7.13;;
33593;SDS011;19920;52.242;20.940;2023-10-31T03:05:27;10.70;;;6.55;;
33593;SDS011;19920;52.242;20.940;2023-10-31T03:07:53;11.52;;;6.57;;
33593;SDS011;19920;52.242;20.940;2023-10-31T03:10:19;11.18;;;6.72;;
33593;SDS011;19920;52.242;20.940;2023-10-31T03:12:46;12.35;;;6.55;;
33593;SDS011;19920;52.242;20.940;2023-10-31T03:15:12;13.05;;;7.07;;
33593;SDS011;19920;52.242;20.940;2023-10-31T03:17:38;12.05;;;6.50;;
33593;SDS011;19920;52.242;20.940;2023-10-31T03:20:03;11.20;;;6.25;;
33593;SDS011;19920;52.242;20.940;2023-10-31T03:22:29;12.57;;;6.70;;
33593;SDS011;19920;52.242;20.940;2023-10-31T03:24:55;8.73;;;5.90;;
33593;SDS011;19920;52.242;20.940;2023-10-31T03:27:20;10.52;;;5.82;;
33593;SDS011;19920;52.242;20.940;2023-10-31T03:29:46;13.93;;;5.90;;
33593;SDS011;19920;52.242;20.940;2023-10-31T03:32:12;10.98;;;6.15;;
33593;SDS011;19920;52.242;20.940;2023-10-31T03:34:37;9.55;;;5.70;;
33593;SDS011;19920;52.242;20.940;2023-10-31T03:37:03;10.65;;;5.50;;
33593;SDS011;19920;52.242;20.940;2023-10-31T03:39:30;14.60;;;5.85;;
33593;SDS011;19920;52.242;20.940;2023-10-31T03:41:55;13.43;;;5.90;;
33593;SDS011;19920;52.242;20.940;2023-10-31T03:44:21;13.45;;;5.80;;
33593;SDS011;19920;52.242;20.940;2023-10-31T03:46:46;9.18;;;5.60;;
33593;SDS011;19920;52.242;20.940;2023-10-31T03:49:12;10.25;;;5.40;;
33593;SDS011;19920;52.242;20.940;2023-10-31T03:51:37;9.93;;;5.20;;
33593;SDS011;19920;52.242;20.940;2023-10-31T03:54:03;12.43;;;5.75;;
33593;SDS011;19920;52.242;20.940;2023-10-31T03:56:29;8.18;;;5.15;;
33593;SDS011;19920;52.242;20.940;2023-10-31T03:58:54;13.48;;;5.88;;
33593;SDS011;19920;52.242;20.940;2023-10-31T04:01:20;8.98;;;5.22;;
33593;SDS011;19920;52.242;20.940;2023-10-31T04:03:45;11.73;;;5.30;;
33593;SDS011;19920;52.242;20.940;2023-10-31T04:06:11;12.00;;;5.20;;
33593;SDS011;19920;52.242;20.940;2023-10-31T04:08:37;12.35;;;5.43;;
33593;SDS011;19920;52.242;20.940;2023-10-31T04:11:02;10.25;;;5.63;;
33593;SDS011;19920;52.242;20.940;2023-10-31T04:13:28;9.48;;;5.22;;
33593;SDS011;19920;52.242;20.940;2023-10-31T04:15:54;10.70;;;4.90;;
33593;SDS011;19920;52.242;20.940;2023-10-31T04:18:19;10.50;;;5.28;;
33593;SDS011;19920;52.242;20.940;2023-10-31T04:20:45;11.48;;;4.68;;
33593;SDS011;19920;52.242;20.940;2023-10-31T04:23:10;8.80;;;4.78;;
33593;SDS011;19920;52.242;20.940;2023-10-31T04:25:37;8.25;;;4.90;;
33593;SDS011;19920;52.242;20.940;2023-10-31T04:28:02;11.93;;;5.00;;
33593;SDS011;19920;52.242;20.940;2023-10-31T04:30:28;11.00;;;4.50;;
33593;SDS011;19920;52.242;20.940;2023-10-31T04:32:53;9.88;;;4.90;;
33593;SDS011;19920;52.242;20.940;2023-10-31T04:35:19;9.82;;;4.53;;
33593;SDS011;19920;52.242;20.940;2023-10-31T04:37:45;9.73;;;4.60;;
33593;SDS011;19920;52.242;20.940;2023-10-31T04:40:10;11.02;;;4.72;;
33593;SDS011;19920;52.242;20.940;2023-10-31T04:42:38;8.35;;;4.60;;
33593;SDS011;19920;52.242;20.940;2023-10-31T04:45:05;12.07;;;4.82;;
33593;SDS011;19920;52.242;20.940;2023-10-31T04:47:31;7.25;;;4.72;;
33593;SDS011;19920;52.242;20.940;2023-10-31T04:49:56;7.30;;;4.20;;
33593;SDS011;19920;52.242;20.940;2023-10-31T04:52:22;8.75;;;4.28;;
33593;SDS011;19920;52.242;20.940;2023-10-31T04:54:50;7.15;;;4.32;;
33593;SDS011;19920;52.242;20.940;2023-10-31T04:57:16;10.25;;;4.28;;
33593;SDS011;19920;52.242;20.940;2023-10-31T04:59:42;7.93;;;4.18;;
33593;SDS011;19920;52.242;20.940;2023-10-31T05:02:07;8.57;;;4.50;;
33593;SDS011;19920;52.242;20.940;2023-10-31T05:04:33;10.07;;;4.38;;
33593;SDS011;19920;52.242;20.940;2023-10-31T05:06:58;6.65;;;3.72;;
33593;SDS011;19920;52.242;20.940;2023-10-31T05:09:24;7.25;;;3.90;;
33593;SDS011;19920;52.242;20.940;2023-10-31T05:11:50;9.88;;;4.28;;
33593;SDS011;19920;52.242;20.940;2023-10-31T05:14:16;8.73;;;3.88;;
33593;SDS011;19920;52.242;20.940;2023-10-31T05:16:42;7.25;;;3.70;;
33593;SDS011;19920;52.242;20.940;2023-10-31T05:19:08;8.30;;;4.15;;
33593;SDS011;19920;52.242;20.940;2023-10-31T05:21:34;8.80;;;4.43;;
33593;SDS011;19920;52.242;20.940;2023-10-31T05:24:00;7.25;;;4.10;;
33593;SDS011;19920;52.242;20.940;2023-10-31T05:26:26;14.57;;;4.00;;
33593;SDS011;19920;52.242;20.940;2023-10-31T05:28:53;8.52;;;4.07;;
33593;SDS011;19920;52.242;20.940;2023-10-31T05:31:19;9.98;;;3.90;;
33593;SDS011;19920;52.242;20.940;2023-10-31T05:33:44;7.85;;;4.10;;
33593;SDS011;19920;52.242;20.940;2023-10-31T05:36:20;9.02;;;3.90;;
33593;SDS011;19920;52.242;20.940;2023-10-31T05:38:47;9.00;;;3.63;;
33593;SDS011;19920;52.242;20.940;2023-10-31T05:41:13;7.85;;;4.15;;
33593;SDS011;19920;52.242;20.940;2023-10-31T05:43:39;6.97;;;3.90;;
33593;SDS011;19920;52.242;20.940;2023-10-31T05:46:05;8.90;;;3.70;;
33593;SDS011;19920;52.242;20.940;2023-10-31T05:48:31;5.70;;;3.35;;
33593;SDS011;19920;52.242;20.940;2023-10-31T05:50:57;7.30;;;3.50;;
33593;SDS011;19920;52.242;20.940;2023-10-31T05:53:22;7.18;;;3.65;;
33593;SDS011;19920;52.242;20.940;2023-10-31T05:55:48;7.93;;;3.50;;
33593;SDS011;19920;52.242;20.940;2023-10-31T05:58:14;7.45;;;3.55;;
33593;SDS011;19920;52.242;20.940;2023-10-31T06:00:39;8.15;;;3.28;;
33593;SDS011;19920;52.242;20.940;2023-10-31T06:03:05;10.63;;;3.80;;
33593;SDS011;19920;52.242;20.940;2023-10-31T06:05:31;6.30;;;3.70;;
33593;SDS011;19920;52.242;20.940;2023-10-31T06:07:56;7.10;;;3.83;;
33593;SDS011;19920;52.242;20.940;2023-10-31T06:10:22;6.30;;;3.90;;
33593;SDS011;19920;52.242;20.940;2023-10-31T06:12:48;6.57;;;3.45;;
33593;SDS011;19920;52.242;20.940;2023-10-31T06:15:13;7.63;;;3.60;;
33593;SDS011;19920;52.242;20.940;2023-10-31T06:17:39;10.10;;;4.60;;
33593;SDS011;19920;52.242;20.940;2023-10-31T06:20:07;7.88;;;3.30;;
33593;SDS011;19920;52.242;20.940;2023-10-31T06:22:33;9.00;;;3.60;;
33593;SDS011;19920;52.242;20.940;2023-10-31T06:24:59;8.40;;;3.85;;
33593;SDS011;19920;52.242;20.940;2023-10-31T06:27:24;9.98;;;3.58;;
33593;SDS011;19920;52.242;20.940;2023-10-31T06:29:50;8.55;;;4.05;;
33593;SDS011;19920;52.242;20.940;2023-10-31T06:32:15;7.82;;;3.70;;
33593;SDS011;19920;52.242;20.940;2023-10-31T06:34:41;6.97;;;3.88;;
33593;SDS011;19920;52.242;20.940;2023-10-31T06:37:07;7.60;;;3.83;;
33593;SDS011;19920;52.242;20.940;2023-10-31T06:39:32;9.07;;;3.60;;
33593;SDS011;19920;52.242;20.940;2023-10-31T06:41:58;10.77;;;4.07;;
33593;SDS011;19920;52.242;20.940;2023-10-31T06:44:23;9.07;;;3.65;;
33593;SDS011;19920;52.242;20.940;2023-10-31T06:46:49;8.13;;;4.15;;
33593;SDS011;19920;52.242;20.940;2023-10-31T06:49:15;6.78;;;3.95;;
33593;SDS011;19920;52.242;20.940;2023-10-31T06:51:40;11.70;;;3.63;;
33593;SDS011;19920;52.242;20.940;2023-10-31T06:54:06;7.78;;;4.15;;
33593;SDS011;19920;52.242;20.940;2023-10-31T06:56:32;9.23;;;3.97;;
33593;SDS011;19920;52.242;20.940;2023-10-31T06:58:57;8.65;;;3.70;;
33593;SDS011;19920;52.242;20.940;2023-10-31T07:01:23;11.15;;;3.65;;
33593;SDS011;19920;52.242;20.940;2023-10-31T07:03:49;7.00;;;3.42;;
33593;SDS011;19920;52.242;20.940;2023-10-31T07:06:15;7.85;;;3.97;;
33593;SDS011;19920;52.242;20.940;2023-10-31T07:08:40;9.27;;;4.07;;
33593;SDS011;19920;52.242;20.940;2023-10-31T07:11:06;5.88;;;4.10;;
33593;SDS011;19920;52.242;20.940;2023-10-31T07:13:31;6.32;;;3.90;;
33593;SDS011;19920;52.242;20.940;2023-10-31T07:15:57;6.68;;;3.97;;
33593;SDS011;19920;52.242;20.940;2023-10-31T07:18:23;11.63;;;3.45;;
33593;SDS011;19920;52.242;20.940;2023-10-31T07:20:48;12.77;;;3.90;;
33593;SDS011;19920;52.242;20.940;2023-10-31T07:23:14;8.77;;;4.00;;
33593;SDS011;19920;52.242;20.940;2023-10-31T07:25:40;9.10;;;4.40;;
33593;SDS011;19920;52.242;20.940;2023-10-31T07:28:06;8.32;;;3.63;;
33593;SDS011;19920;52.242;20.940;2023-10-31T07:30:32;11.20;;;4.00;;
33593;SDS011;19920;52.242;20.940;2023-10-31T07:32:57;8.40;;;3.90;;
33593;SDS011;19920;52.242;20.940;2023-10-31T07:35:23;8.05;;;3.40;;
33593;SDS011;19920;52.242;20.940;2023-10-31T07:37:48;9.15;;;3.70;;
33593;SDS011;19920;52.242;20.940;2023-10-31T07:40:14;5.40;;;3.15;;
33593;SDS011;19920;52.242;20.940;2023-10-31T07:42:39;7.28;;;3.70;;
33593;SDS011;19920;52.242;20.940;2023-10-31T07:45:05;6.72;;;3.60;;
33593;SDS011;19920;52.242;20.940;2023-10-31T07:47:31;6.05;;;3.75;;
33593;SDS011;19920;52.242;20.940;2023-10-31T07:49:57;6.72;;;3.42;;
33593;SDS011;19920;52.242;20.940;2023-10-31T07:52:23;8.25;;;3.97;;
33593;SDS011;19920;52.242;20.940;2023-10-31T07:54:49;7.50;;;3.63;;
33593;SDS011;19920;52.242;20.940;2023-10-31T07:57:14;8.38;;;3.58;;
33593;SDS011;19920;52.242;20.940;2023-10-31T07:59:40;10.23;;;3.72;;
33593;SDS011;19920;52.242;20.940;2023-10-31T08:02:05;8.38;;;3.20;;
33593;SDS011;19920;52.242;20.940;2023-10-31T08:04:31;8.63;;;3.88;;
33593;SDS011;19920;52.242;20.940;2023-10-31T08:06:57;8.90;;;3.53;;
33593;SDS011;19920;52.242;20.940;2023-10-31T08:09:22;5.60;;;3.42;;
33593;SDS011;19920;52.242;20.940;2023-10-31T08:11:48;5.88;;;3.58;;
33593;SDS011;19920;52.242;20.940;2023-10-31T08:14:14;5.88;;;3.22;;
33593;SDS011;19920;52.242;20.940;2023-10-31T08:16:40;6.50;;;3.58;;
33593;SDS011;19920;52.242;20.940;2023-10-31T08:19:07;6.72;;;2.90;;
33593;SDS011;19920;52.242;20.940;2023-10-31T08:21:33;7.07;;;3.40;;
33593;SDS011;19920;52.242;20.940;2023-10-31T08:24:01;8.43;;;3.47;;
33593;SDS011;19920;52.242;20.940;2023-10-31T08:26:28;7.47;;;3.65;;
33593;SDS011;19920;52.242;20.940;2023-10-31T08:28:54;6.43;;;2.78;;
33593;SDS011;19920;52.242;20.940;2023-10-31T08:31:20;4.88;;;2.88;;
33593;SDS011;19920;52.242;20.940;2023-10-31T08:33:45;4.97;;;3.00;;
33593;SDS011;19920;52.242;20.940;2023-10-31T08:36:11;6.82;;;2.95;;
33593;SDS011;19920;52.242;20.940;2023-10-31T08:38:37;8.18;;;3.40;;
33593;SDS011;19920;52.242;20.940;2023-10-31T08:41:02;6.35;;;3.08;;
33593;SDS011;19920;52.242;20.940;2023-10-31T08:43:28;7.25;;;2.75;;
33593;SDS011;19920;52.242;20.940;2023-10-31T08:45:54;6.25;;;2.92;;
33593;SDS011;19920;52.242;20.940;2023-10-31T08:48:19;6.55;;;3.00;;
33593;SDS011;19920;52.242;20.940;2023-10-31T08:50:45;5.93;;;2.70;;
33593;SDS011;19920;52.242;20.940;2023-10-31T08:53:11;7.50;;;3.17;;
33593;SDS011;19920;52.242;20.940;2023-10-31T08:55:36;5.05;;;3.05;;
33593;SDS011;19920;52.242;20.940;2023-10-31T08:58:02;5.97;;;2.78;;
33593;SDS011;19920;52.242;20.940;2023-10-31T09:00:28;6.07;;;2.97;;
33593;SDS011;19920;52.242;20.940;2023-10-31T09:02:54;7.05;;;2.60;;
33593;SDS011;19920;52.242;20.940;2023-10-31T09:05:19;7.30;;;2.92;;
33593;SDS011;19920;52.242;20.940;2023-10-31T09:07:46;5.82;;;2.63;;
33593;SDS011;19920;52.242;20.940;2023-10-31T09:10:12;10.35;;;2.67;;
33593;SDS011;19920;52.242;20.940;2023-10-31T09:12:39;8.88;;;2.70;;
33593;SDS011;19920;52.242;20.940;2023-10-31T09:15:04;6.90;;;3.00;;
33593;SDS011;19920;52.242;20.940;2023-10-31T09:17:30;7.63;;;2.85;;
33593;SDS011;19920;52.242;20.940;2023-10-31T09:19:56;4.85;;;2.70;;
33593;SDS011;19920;52.242;20.940;2023-10-31T09:22:21;6.00;;;2.85;;
33593;SDS011;19920;52.242;20.940;2023-10-31T09:24:47;6.32;;;2.92;;
33593;SDS011;19920;52.242;20.940;2023-10-31T09:27:12;8.02;;;3.08;;
33593;SDS011;19920;52.242;20.940;2023-10-31T09:29:38;5.25;;;2.70;;
33593;SDS011;19920;52.242;20.940;2023-10-31T09:32:04;4.95;;;2.70;;
33593;SDS011;19920;52.242;20.940;2023-10-31T09:34:31;8.90;;;3.17;;
33593;SDS011;19920;52.242;20.940;2023-10-31T09:36:57;5.55;;;3.05;;
33593;SDS011;19920;52.242;20.940;2023-10-31T09:39:23;8.60;;;3.30;;
33593;SDS011;19920;52.242;20.940;2023-10-31T09:41:49;8.05;;;3.10;;
33593;SDS011;19920;52.242;20.940;2023-10-31T09:44:14;6.35;;;2.95;;
33593;SDS011;19920;52.242;20.940;2023-10-31T09:46:40;6.85;;;3.33;;
33593;SDS011;19920;52.242;20.940;2023-10-31T09:49:06;6.50;;;3.20;;
33593;SDS011;19920;52.242;20.940;2023-10-31T09:51:33;8.00;;;3.30;;
33593;SDS011;19920;52.242;20.940;2023-10-31T09:53:59;10.25;;;3.55;;
33593;SDS011;19920;52.242;20.940;2023-10-31T09:56:28;7.82;;;2.97;;
33593;SDS011;19920;52.242;20.940;2023-10-31T09:58:59;6.93;;;2.88;;
33593;SDS011;19920;52.242;20.940;2023-10-31T10:01:25;5.75;;;3.05;;
33593;SDS011;19920;52.242;20.940;2023-10-31T10:03:51;6.22;;;3.10;;
33593;SDS011;19920;52.242;20.940;2023-10-31T10:06:19;6.38;;;3.05;;
33593;SDS011;19920;52.242;20.940;2023-10-31T10:08:46;6.25;;;3.10;;
33593;SDS011;19920;52.242;20.940;2023-10-31T10:11:12;6.70;;;3.35;;
33593;SDS011;19920;52.242;20.940;2023-10-31T10:13:37;5.90;;;2.97;;
33593;SDS011;19920;52.242;20.940;2023-10-31T10:16:03;7.57;;;3.00;;
33593;SDS011;19920;52.242;20.940;2023-10-31T10:18:33;8.75;;;3.10;;
33593;SDS011;19920;52.242;20.940;2023-10-31T10:21:03;8.35;;;3.45;;
33593;SDS011;19920;52.242;20.940;2023-10-31T10:23:30;6.60;;;3.22;;
33593;SDS011;19920;52.242;20.940;2023-10-31T10:25:56;9.07;;;3.17;;
33593;SDS011;19920;52.242;20.940;2023-10-31T10:28:22;5.72;;;2.75;;
33593;SDS011;19920;52.242;20.940;2023-10-31T10:30:51;11.93;;;3.50;;
33593;SDS011;19920;52.242;20.940;2023-10-31T10:33:19;11.93;;;3.38;;
33593;SDS011;19920;52.242;20.940;2023-10-31T10:35:45;8.30;;;3.10;;
33593;SDS011;19920;52.242;20.940;2023-10-31T10:38:12;8.00;;;3.20;;
33593;SDS011;19920;52.242;20.940;2023-10-31T10:40:43;6.70;;;2.95;;
33593;SDS011;19920;52.242;20.940;2023-10-31T10:43:15;6.75;;;3.30;;
33593;SDS011;19920;52.242;20.940;2023-10-31T10:45:58;9.90;;;3.47;;
33593;SDS011;19920;52.242;20.940;2023-10-31T10:48:24;6.82;;;3.25;;
33593;SDS011;19920;52.242;20.940;2023-10-31T10:50:55;5.32;;;2.90;;
33593;SDS011;19920;52.242;20.940;2023-10-31T10:53:25;7.25;;;3.25;;
33593;SDS011;19920;52.242;20.940;2023-10-31T10:56:03;7.60;;;3.03;;
33593;SDS011;19920;52.242;20.940;2023-10-31T10:58:47;5.60;;;2.97;;
33593;SDS011;19920;52.242;20.940;2023-10-31T11:01:20;7.15;;;2.83;;
33593;SDS011;19920;52.242;20.940;2023-10-31T11:03:46;9.05;;;2.95;;
33593;SDS011;19920;52.242;20.940;2023-10-31T11:06:12;8.15;;;2.75;;
33593;SDS011;19920;52.242;20.940;2023-10-31T11:08:39;5.22;;;2.47;;
33593;SDS011;19920;52.242;20.940;2023-10-31T11:11:05;4.70;;;2.42;;
33593;SDS011;19920;52.242;20.940;2023-10-31T11:13:31;4.80;;;2.15;;
33593;SDS011;19920;52.242;20.940;2023-10-31T11:15:59;4.55;;;2.17;;
33593;SDS011;19920;52.242;20.940;2023-10-31T11:18:29;7.03;;;2.47;;
33593;SDS011;19920;52.242;20.940;2023-10-31T11:20:55;7.43;;;2.33;;
33593;SDS011;19920;52.242;20.940;2023-10-31T11:23:21;7.07;;;2.08;;
33593;SDS011;19920;52.242;20.940;2023-10-31T11:25:49;4.20;;;1.90;;
33593;SDS011;19920;52.242;20.940;2023-10-31T11:28:18;8.25;;;2.28;;
33593;SDS011;19920;52.242;20.940;2023-10-31T11:30:45;5.43;;;2.95;;
33593;SDS011;19920;52.242;20.940;2023-10-31T11:33:14;6.77;;;2.40;;
33593;SDS011;19920;52.242;20.940;2023-10-31T11:35:41;4.80;;;2.00;;
33593;SDS011;19920;52.242;20.940;2023-10-31T11:38:09;7.30;;;2.17;;
33593;SDS011;19920;52.242;20.940;2023-10-31T11:43:14;5.28;;;1.95;;
33593;SDS011;19920;52.242;20.940;2023-10-31T11:45:40;6.10;;;2.10;;
33593;SDS011;19920;52.242;20.940;2023-10-31T11:48:08;4.43;;;2.30;;
33593;SDS011;19920;52.242;20.940;2023-10-31T11:50:35;4.68;;;2.47;;
33593;SDS011;19920;52.242;20.940;2023-10-31T11:55:35;5.30;;;2.45;;
33593;SDS011;19920;52.242;20.940;2023-10-31T11:58:20;5.65;;;2.55;;
33593;SDS011;19920;52.242;20.940;2023-10-31T12:00:50;7.13;;;2.30;;
33593;SDS011;19920;52.242;20.940;2023-10-31T12:03:20;9.55;;;2.67;;
33593;SDS011;19920;52.242;20.940;2023-10-31T12:05:56;6.00;;;2.13;;
33593;SDS011;19920;52.242;20.940;2023-10-31T12:08:26;5.22;;;2.45;;
33593;SDS011;19920;52.242;20.940;2023-10-31T12:11:09;4.75;;;2.42;;
33593;SDS011;19920;52.242;20.940;2023-10-31T12:13:51;4.72;;;2.17;;
33593;SDS011;19920;52.242;20.940;2023-10-31T12:16:27;5.50;;;2.05;;
33593;SDS011;19920;52.242;20.940;2023-10-31T12:18:55;3.33;;;2.08;;
33593;SDS011;19920;52.242;20.940;2023-10-31T12:21:33;4.10;;;1.90;;
33593;SDS011;19920;52.242;20.940;2023-10-31T12:24:09;3.30;;;1.70;;
33593;SDS011;19920;52.242;20.940;2023-10-31T12:26:36;2.95;;;1.50;;
33593;SDS011;19920;52.242;20.940;2023-10-31T12:29:20;3.00;;;1.67;;
33593;SDS011;19920;52.242;20.940;2023-10-31T12:31:47;5.55;;;1.80;;
33593;SDS011;19920;52.242;20.940;2023-10-31T12:34:17;2.58;;;1.60;;
33593;SDS011;19920;52.242;20.940;2023-10-31T12:36:46;3.50;;;1.45;;
33593;SDS011;19920;52.242;20.940;2023-10-31T12:39:13;3.28;;;1.52;;
33593;SDS011;19920;52.242;20.940;2023-10-31T12:41:39;4.47;;;1.30;;
33593;SDS011;19920;52.242;20.940;2023-10-31T12:44:06;3.15;;;1.50;;
33593;SDS011;19920;52.242;20.940;2023-10-31T12:46:38;3.05;;;1.58;;
33593;SDS011;19920;52.242;20.940;2023-10-31T12:49:04;3.87;;;1.40;;
33593;SDS011;19920;52.242;20.940;2023-10-31T12:51:55;6.60;;;1.67;;
33593;SDS011;19920;52.242;20.940;2023-10-31T12:54:28;5.88;;;1.75;;
33593;SDS011;19920;52.242;20.940;2023-10-31T12:57:04;2.90;;;1.20;;
33593;SDS011;19920;52.242;20.940;2023-10-31T12:59:35;3.22;;;1.23;;
33593;SDS011;19920;52.242;20.940;2023-10-31T13:02:02;2.42;;;1.15;;
33593;SDS011;19920;52.242;20.940;2023-10-31T13:04:30;1.02;;;0.75;;
33593;SDS011;19920;52.242;20.940;2023-10-31T13:07:00;2.10;;;1.05;;
33593;SDS011;19920;52.242;20.940;2023-10-31T13:09:37;2.22;;;1.08;;
33593;SDS011;19920;52.242;20.940;2023-10-31T13:12:08;3.28;;;1.35;;
33593;SDS011;19920;52.242;20.940;2023-10-31T13:14:36;5.75;;;1.35;;
33593;SDS011;19920;52.242;20.940;2023-10-31T13:17:03;2.00;;;1.17;;
33593;SDS011;19920;52.242;20.940;2023-10-31T13:19:28;3.83;;;1.30;;
33593;SDS011;19920;52.242;20.940;2023-10-31T13:21:54;4.93;;;1.33;;
33593;SDS011;19920;52.242;20.940;2023-10-31T13:24:20;2.30;;;1.38;;
33593;SDS011;19920;52.242;20.940;2023-10-31T13:26:46;2.50;;;1.58;;
33593;SDS011;19920;52.242;20.940;2023-10-31T13:29:16;2.10;;;1.30;;
33593;SDS011;19920;52.242;20.940;2023-10-31T13:31:42;3.70;;;1.60;;
33593;SDS011;19920;52.242;20.940;2023-10-31T13:34:08;4.53;;;1.60;;
33593;SDS011;19920;52.242;20.940;2023-10-31T13:36:33;2.05;;;1.30;;
33593;SDS011;19920;52.242;20.940;2023-10-31T13:39:02;14.23;;;1.90;;
33593;SDS011;19920;52.242;20.940;2023-10-31T13:41:27;4.05;;;1.70;;
33593;SDS011;19920;52.242;20.940;2023-10-31T13:43:53;3.92;;;1.55;;
33593;SDS011;19920;52.242;20.940;2023-10-31T13:46:18;2.97;;;1.45;;
33593;SDS011;19920;52.242;20.940;2023-10-31T13:48:44;2.80;;;1.50;;
33593;SDS011;19920;52.242;20.940;2023-10-31T13:51:10;5.18;;;1.58;;
33593;SDS011;19920;52.242;20.940;2023-10-31T13:53:36;2.88;;;1.33;;
33593;SDS011;19920;52.242;20.940;2023-10-31T13:56:01;2.65;;;1.27;;
33593;SDS011;19920;52.242;20.940;2023-10-31T13:58:27;1.80;;;1.20;;
33593;SDS011;19920;52.242;20.940;2023-10-31T14:00:53;2.92;;;1.17;;
33593;SDS011;19920;52.242;20.940;2023-10-31T14:03:18;2.15;;;1.33;;
33593;SDS011;19920;52.242;20.940;2023-10-31T14:05:45;2.05;;;1.30;;
33593;SDS011;19920;52.242;20.940;2023-10-31T14:08:11;2.90;;;1.08;;
33593;SDS011;19920;52.242;20.940;2023-10-31T14:10:37;3.13;;;0.88;;
33593;SDS011;19920;52.242;20.940;2023-10-31T14:13:03;1.83;;;1.30;;
33593;SDS011;19920;52.242;20.940;2023-10-31T14:15:28;2.22;;;1.00;;
33593;SDS011;19920;52.242;20.940;2023-10-31T14:17:54;3.20;;;1.00;;
33593;SDS011;19920;52.242;20.940;2023-10-31T14:20:19;1.30;;;1.00;;
33593;SDS011;19920;52.242;20.940;2023-10-31T14:22:49;1.52;;;1.10;;
33593;SDS011;19920;52.242;20.940;2023-10-31T14:25:14;1.30;;;1.08;;
33593;SDS011;19920;52.242;20.940;2023-10-31T14:27:40;2.53;;;1.20;;
33593;SDS011;19920;52.242;20.940;2023-10-31T14:30:07;1.67;;;1.00;;
33593;SDS011;19920;52.242;20.940;2023-10-31T14:32:34;2.30;;;1.13;;